createdAt,value
2023-05-14T00:01:03.182Z,95126.00
2023-05-14T00:03:30.067Z,95123.80
2023-05-14T00:05:56.722Z,95123.40
2023-05-14T00:08:23.396Z,95125.20
2023-05-14T00:10:49.986Z,95119.60
2023-05-14T00:13:16.589Z,95115.60
2023-05-14T00:15:43.373Z,95115.80
2023-05-14T00:20:38.950Z,95116.80
2023-05-14T00:23:05.568Z,95117.00
2023-05-14T00:25:32.274Z,95107.60
2023-05-14T00:27:58.841Z,95115.40
2023-05-14T00:30:25.705Z,95114.20
2023-05-14T00:32:53.399Z,95111.60
2023-05-14T00:35:21.533Z,95113.40
2023-05-14T00:37:48.299Z,95115.00
2023-05-14T00:40:15.002Z,95116.20
2023-05-14T00:42:41.713Z,95114.20
2023-05-14T00:45:09.011Z,95113.60
2023-05-14T00:47:36.463Z,95116.40
2023-05-14T00:50:04.070Z,95119.40
2023-05-14T00:52:33.237Z,95115.40
2023-05-14T00:55:03.212Z,95112.80
2023-05-14T00:57:29.848Z,95112.00
2023-05-14T00:59:56.692Z,95112.60
2023-05-14T01:02:23.435Z,95109.40
2023-05-14T01:04:51.323Z,95110.00
2023-05-14T01:07:29.912Z,95109.00
2023-05-14T01:10:17.555Z,95108.80
2023-05-14T01:13:22.503Z,95105.40
2023-05-14T01:15:49.569Z,95104.20
2023-05-14T01:18:19.578Z,95104.40
2023-05-14T01:20:46.238Z,95101.60
2023-05-14T01:23:12.876Z,95107.60
2023-05-14T01:25:40.285Z,95103.20
2023-05-14T01:28:18.466Z,95103.60
2023-05-14T01:31:04.265Z,95099.60
2023-05-14T01:33:34.240Z,95094.40
2023-05-14T01:36:02.141Z,95093.40
2023-05-14T01:38:33.939Z,95089.80
2023-05-14T01:41:01.749Z,95092.00
2023-05-14T01:43:29.625Z,95086.40
2023-05-14T01:45:56.381Z,95088.80
2023-05-14T01:48:25.291Z,95088.80
2023-05-14T01:50:52.528Z,95090.40
2023-05-14T01:53:19.148Z,95083.40
2023-05-14T01:55:45.850Z,95080.00
2023-05-14T01:58:12.499Z,95075.40
2023-05-14T02:00:39.197Z,95072.20
2023-05-14T02:03:05.927Z,95072.20
2023-05-14T02:05:32.627Z,95066.40
2023-05-14T02:07:59.381Z,95070.20
2023-05-14T02:10:26.142Z,95073.40
2023-05-14T02:12:52.788Z,95070.40
2023-05-14T02:15:19.547Z,95077.20
2023-05-14T02:17:46.497Z,95080.40
2023-05-14T02:20:13.555Z,95078.60
2023-05-14T02:22:42.360Z,95076.00
2023-05-14T02:25:09.845Z,95076.40
2023-05-14T02:27:36.431Z,95075.40
2023-05-14T02:30:04.625Z,95071.60
2023-05-14T02:32:31.261Z,95071.60
2023-05-14T02:34:57.924Z,95072.40
2023-05-14T02:37:24.548Z,95073.20
2023-05-14T02:39:52.330Z,95069.20
2023-05-14T02:42:18.979Z,95066.00
2023-05-14T02:44:46.580Z,95068.80
2023-05-14T02:47:13.211Z,95067.60
2023-05-14T02:49:40.836Z,95072.60
2023-05-14T02:52:07.437Z,95072.80
2023-05-14T02:54:34.485Z,95074.20
2023-05-14T02:57:01.112Z,95067.60
2023-05-14T02:59:27.950Z,95065.60
2023-05-14T03:01:55.148Z,95060.60
2023-05-14T03:04:22.390Z,95059.00
2023-05-14T03:06:49.293Z,95061.80
2023-05-14T03:09:16.035Z,95059.80
2023-05-14T03:11:42.717Z,95056.20
2023-05-14T03:14:09.333Z,95055.80
2023-05-14T03:16:35.973Z,95059.80
2023-05-14T03:19:02.824Z,95061.60
2023-05-14T03:21:29.538Z,95057.00
2023-05-14T03:23:56.727Z,95059.40
2023-05-14T03:26:23.356Z,95057.60
2023-05-14T03:28:52.479Z,95055.40
2023-05-14T03:31:19.246Z,95051.80
2023-05-14T03:33:45.992Z,95049.00
2023-05-14T03:36:12.989Z,95047.80
2023-05-14T03:38:39.717Z,95048.80
2023-05-14T03:41:06.428Z,95048.80
2023-05-14T03:43:33.015Z,95050.20
2023-05-14T03:46:00.057Z,95047.00
2023-05-14T03:48:27.089Z,95050.00
2023-05-14T03:50:53.817Z,95048.20
2023-05-14T03:53:20.448Z,95044.20
2023-05-14T03:55:47.439Z,95041.20
2023-05-14T03:58:14.581Z,95038.60
2023-05-14T04:00:42.983Z,95041.00
2023-05-14T04:03:11.200Z,95042.80
2023-05-14T04:05:38.104Z,95043.00
2023-05-14T04:08:05.978Z,95041.60
2023-05-14T04:10:32.586Z,95038.00
2023-05-14T04:13:00.118Z,95036.20
2023-05-14T04:15:30.975Z,95039.60
2023-05-14T04:17:57.774Z,95045.00
2023-05-14T04:20:24.923Z,95045.80
2023-05-14T04:22:51.982Z,95045.40
2023-05-14T04:25:18.634Z,95046.00
2023-05-14T04:27:45.350Z,95047.20
2023-05-14T04:30:12.500Z,95043.20
2023-05-14T04:32:39.391Z,95048.20
2023-05-14T04:35:07.236Z,95049.40
2023-05-14T04:37:33.897Z,95050.40
2023-05-14T04:40:00.897Z,95052.60
2023-05-14T04:42:27.527Z,95053.20
2023-05-14T04:44:54.127Z,95051.80
2023-05-14T04:47:21.193Z,95050.40
2023-05-14T04:49:48.290Z,95053.00
2023-05-14T04:52:15.014Z,95048.60
2023-05-14T04:54:41.692Z,95053.20
2023-05-14T04:57:08.391Z,95052.80
2023-05-14T04:59:34.947Z,95052.40
2023-05-14T05:02:01.753Z,95054.80
2023-05-14T05:04:28.372Z,95052.60
2023-05-14T05:06:54.995Z,95054.80
2023-05-14T05:09:21.617Z,95053.60
2023-05-14T05:11:48.281Z,95055.80
2023-05-14T05:14:14.801Z,95056.80
2023-05-14T05:16:41.479Z,95056.40
2023-05-14T05:19:08.345Z,95052.00
2023-05-14T05:21:36.206Z,95053.20
2023-05-14T05:24:02.758Z,95053.80
2023-05-14T05:26:29.311Z,95052.60
2023-05-14T05:28:55.924Z,95055.20
2023-05-14T05:31:22.568Z,95056.60
2023-05-14T05:33:49.294Z,95053.20
2023-05-14T05:36:15.940Z,95061.40
2023-05-14T05:38:42.505Z,95057.20
2023-05-14T05:41:09.146Z,95055.20
2023-05-14T05:43:35.721Z,95054.00
2023-05-14T05:46:02.438Z,95054.20
2023-05-14T05:48:29.075Z,95056.80
2023-05-14T05:50:55.868Z,95059.80
2023-05-14T05:53:22.523Z,95058.40
2023-05-14T05:55:51.499Z,95062.40
2023-05-14T05:58:19.444Z,95061.20
2023-05-14T06:00:47.172Z,95063.60
2023-05-14T06:03:14.334Z,95064.20
2023-05-14T06:05:41.013Z,95061.00
2023-05-14T06:08:07.637Z,95057.80
2023-05-14T06:10:34.992Z,95047.40
2023-05-14T06:13:01.896Z,95045.40
2023-05-14T06:15:28.570Z,95049.40
2023-05-14T06:17:55.376Z,95049.40
2023-05-14T06:20:22.220Z,95049.20
2023-05-14T06:22:49.102Z,95049.20
2023-05-14T06:25:15.671Z,95050.00
2023-05-14T06:27:42.890Z,95046.80
2023-05-14T06:30:11.287Z,95047.00
2023-05-14T06:32:37.967Z,95047.60
2023-05-14T06:35:05.261Z,95050.00
2023-05-14T06:37:31.864Z,95052.00
2023-05-14T06:39:58.638Z,95054.20
2023-05-14T06:42:26.515Z,95051.80
2023-05-14T06:44:53.849Z,95045.60
2023-05-14T06:47:20.811Z,95044.60
2023-05-14T06:49:47.381Z,95046.20
2023-05-14T06:52:14.010Z,95047.60
2023-05-14T06:54:40.594Z,95045.00
2023-05-14T06:57:07.264Z,95048.40
2023-05-14T06:59:34.006Z,95049.80
2023-05-14T07:02:01.366Z,95055.60
2023-05-14T07:04:28.010Z,95054.60
2023-05-14T07:06:54.707Z,95056.00
2023-05-14T07:09:22.069Z,95054.80
2023-05-14T07:11:48.707Z,95048.40
2023-05-14T07:14:15.959Z,95042.00
2023-05-14T07:16:43.000Z,95037.60
2023-05-14T07:19:09.664Z,95025.20
2023-05-14T07:21:36.464Z,95016.40
2023-05-14T07:24:03.196Z,95016.00
2023-05-14T07:26:30.467Z,95016.40
2023-05-14T07:28:57.359Z,95015.20
2023-05-14T07:31:24.018Z,95020.80
2023-05-14T07:33:50.858Z,95019.60
2023-05-14T07:36:17.531Z,95016.60
2023-05-14T07:38:44.372Z,95022.00
2023-05-14T07:41:12.242Z,95023.20
2023-05-14T07:43:40.511Z,95021.80
2023-05-14T07:46:07.203Z,95018.40
2023-05-14T07:48:33.889Z,95019.40
2023-05-14T07:51:00.551Z,95012.20
2023-05-14T07:53:27.162Z,95007.80
2023-05-14T07:55:54.568Z,95005.80
2023-05-14T07:58:21.263Z,95001.60
2023-05-14T08:00:47.868Z,94999.80
2023-05-14T08:03:15.194Z,95001.00
2023-05-14T08:05:42.105Z,95002.40
2023-05-14T08:08:08.639Z,95000.80
2023-05-14T08:10:35.243Z,94997.40
2023-05-14T08:13:02.069Z,95001.00
2023-05-14T08:15:28.705Z,94999.80
2023-05-14T08:17:55.729Z,94999.80
2023-05-14T08:20:23.194Z,95006.40
2023-05-14T08:22:49.998Z,95010.00
2023-05-14T08:25:16.643Z,95013.40
2023-05-14T08:27:43.276Z,95013.40
2023-05-14T08:30:10.429Z,95017.60
2023-05-14T08:32:38.764Z,95018.40
2023-05-14T08:35:06.889Z,95016.60
2023-05-14T08:37:33.669Z,95015.80
2023-05-14T08:40:00.443Z,95018.20
2023-05-14T08:42:28.957Z,95008.40
2023-05-14T08:45:03.824Z,95009.40
2023-05-14T08:47:31.089Z,95007.60
2023-05-14T08:50:08.324Z,95007.00
2023-05-14T08:52:35.568Z,95010.00
2023-05-14T08:55:06.677Z,95001.80
2023-05-14T08:57:34.673Z,95004.20
2023-05-14T09:00:08.348Z,95003.60
2023-05-14T09:02:37.161Z,95007.40
2023-05-14T09:05:04.362Z,95005.80
2023-05-14T09:07:31.176Z,95008.60
2023-05-14T09:09:58.071Z,95006.80
2023-05-14T09:12:24.823Z,95004.80
2023-05-14T09:14:51.753Z,95000.60
2023-05-14T09:17:19.318Z,94995.60
2023-05-14T09:19:52.932Z,95000.80
2023-05-14T09:22:20.877Z,94996.40
2023-05-14T09:25:07.259Z,94996.40
2023-05-14T09:27:34.978Z,94990.60
2023-05-14T09:30:13.493Z,94989.40
2023-05-14T09:32:50.250Z,94989.60
2023-05-14T09:35:21.515Z,94989.40
2023-05-14T09:37:51.720Z,94987.80
2023-05-14T09:40:23.984Z,94987.60
2023-05-14T09:42:51.100Z,94990.20
2023-05-14T09:45:17.939Z,94990.80
2023-05-14T09:47:45.424Z,94996.60
2023-05-14T09:50:12.566Z,94994.20
2023-05-14T09:52:39.550Z,94993.00
2023-05-14T09:55:07.059Z,94990.60
2023-05-14T09:57:34.528Z,94985.00
2023-05-14T10:00:01.416Z,94985.60
2023-05-14T10:02:41.353Z,94985.60
2023-05-14T10:05:09.735Z,94979.40
2023-05-14T10:07:47.921Z,94978.60
2023-05-14T10:10:19.331Z,94976.80
2023-05-14T10:12:57.596Z,94977.00
2023-05-14T10:15:41.740Z,94981.60
2023-05-14T10:18:14.982Z,94975.40
2023-05-14T10:20:42.124Z,94983.20
2023-05-14T10:23:09.027Z,94984.80
2023-05-14T10:25:36.925Z,94986.00
2023-05-14T10:28:04.575Z,94986.40
2023-05-14T10:30:32.145Z,94983.60
2023-05-14T10:33:16.707Z,94982.20
2023-05-14T10:36:04.138Z,94986.80
2023-05-14T10:38:35.870Z,94985.40
2023-05-14T10:41:04.658Z,94982.40
2023-05-14T10:43:40.291Z,94987.20
2023-05-14T10:46:10.079Z,94991.60
2023-05-14T10:48:40.059Z,94992.20
2023-05-14T10:51:09.389Z,94994.60
2023-05-14T10:53:42.267Z,94987.80
2023-05-14T10:56:12.438Z,94985.20
2023-05-14T10:58:42.750Z,94986.60
2023-05-14T11:01:13.184Z,94985.40
2023-05-14T11:03:46.248Z,94983.80
2023-05-14T11:06:15.988Z,94982.60
2023-05-14T11:08:43.020Z,94985.40
2023-05-14T11:11:11.065Z,94985.20
2023-05-14T11:13:40.688Z,94978.00
2023-05-14T11:16:21.920Z,94978.60
2023-05-14T11:19:02.029Z,94976.40
2023-05-14T11:21:30.432Z,94977.40
2023-05-14T11:23:57.145Z,94973.60
2023-05-14T11:26:24.458Z,94973.00
2023-05-14T11:28:51.131Z,94965.60
2023-05-14T11:31:20.684Z,94966.20
2023-05-14T11:33:47.518Z,94958.80
2023-05-14T11:36:14.728Z,94954.00
2023-05-14T11:38:49.026Z,94949.40
2023-05-14T11:41:16.260Z,94955.20
2023-05-14T11:43:42.944Z,94959.80
2023-05-14T11:46:18.180Z,94958.60
2023-05-14T11:48:45.763Z,94958.20
2023-05-14T11:51:12.729Z,94947.20
2023-05-14T11:53:39.491Z,94943.20
2023-05-14T11:56:08.270Z,94936.60
2023-05-14T11:58:36.369Z,94934.80
2023-05-14T12:01:03.152Z,94933.20
2023-05-14T12:03:30.988Z,94930.80
2023-05-14T12:06:00.165Z,94929.60
2023-05-14T12:08:31.800Z,94919.40
2023-05-14T12:11:00.592Z,94913.40
2023-05-14T12:13:31.576Z,94911.80
2023-05-14T12:16:00.916Z,94903.00
2023-05-14T12:18:31.227Z,94902.20
2023-05-14T12:21:07.791Z,94904.00
2023-05-14T12:23:34.437Z,94905.60
2023-05-14T12:26:07.216Z,94901.20
2023-05-14T12:28:37.716Z,94896.80
2023-05-14T12:31:05.420Z,94894.60
2023-05-14T12:33:32.174Z,94891.60
2023-05-14T12:36:14.049Z,94884.20
2023-05-14T12:38:50.215Z,94882.00
2023-05-14T12:41:18.307Z,94874.80
2023-05-14T12:43:45.224Z,94868.60
2023-05-14T12:46:11.877Z,94867.00
2023-05-14T12:48:38.446Z,94860.80
2023-05-14T12:51:05.077Z,94858.00
2023-05-14T12:53:31.778Z,94850.60
2023-05-14T12:55:58.450Z,94850.20
2023-05-14T12:58:25.449Z,94848.40
2023-05-14T13:00:52.239Z,94850.00
2023-05-14T13:03:18.997Z,94838.00
2023-05-14T13:05:45.664Z,94844.20
2023-05-14T13:08:14.807Z,94845.60
2023-05-14T13:10:41.413Z,94847.00
2023-05-14T13:13:08.037Z,94836.20
2023-05-14T13:15:36.389Z,94834.80
2023-05-14T13:18:03.769Z,94829.00
2023-05-14T13:20:31.251Z,94821.60
2023-05-14T13:22:58.217Z,94814.60
2023-05-14T13:25:25.054Z,94810.60
2023-05-14T13:27:51.953Z,94805.40
2023-05-14T13:30:19.588Z,94799.60
2023-05-14T13:32:46.920Z,94800.00
2023-05-14T13:35:14.110Z,94805.40
2023-05-14T13:37:40.800Z,94804.20
2023-05-14T13:40:08.432Z,94801.40
2023-05-14T13:42:36.368Z,94798.60
2023-05-14T13:45:04.186Z,94799.00
2023-05-14T13:47:31.433Z,94795.60
2023-05-14T13:49:58.258Z,94788.60
2023-05-14T13:52:25.081Z,94789.60
2023-05-14T13:54:53.037Z,94786.80
2023-05-14T13:57:20.144Z,94784.20
2023-05-14T13:59:47.326Z,94776.60
2023-05-14T14:02:13.929Z,94768.80
2023-05-14T14:04:40.539Z,94766.20
2023-05-14T14:07:07.229Z,94768.80
2023-05-14T14:09:35.917Z,94767.80
2023-05-14T14:12:06.315Z,94768.60
2023-05-14T14:14:33.986Z,94765.80
2023-05-14T14:17:00.749Z,94758.40
2023-05-14T14:19:27.311Z,94753.60
2023-05-14T14:21:53.956Z,94748.40
2023-05-14T14:24:20.613Z,94743.20
2023-05-14T14:26:47.282Z,94744.80
2023-05-14T14:29:14.005Z,94747.60
2023-05-14T14:31:40.738Z,94745.60
2023-05-14T14:34:07.414Z,94745.60
2023-05-14T14:36:34.012Z,94738.40
2023-05-14T14:39:00.699Z,94727.80
2023-05-14T14:41:27.432Z,94719.60
2023-05-14T14:43:54.140Z,94714.60
2023-05-14T14:46:20.801Z,94715.80
2023-05-14T14:48:47.525Z,94713.00
2023-05-14T14:51:14.231Z,94725.60
2023-05-14T14:53:41.293Z,94726.40
2023-05-14T14:56:08.167Z,94720.60
2023-05-14T14:58:34.901Z,94726.40
2023-05-14T15:01:01.769Z,94716.00
2023-05-14T15:03:28.766Z,94722.60
2023-05-14T15:05:55.750Z,94721.20
2023-05-14T15:08:27.892Z,94722.40
2023-05-14T15:10:56.631Z,94725.00
2023-05-14T15:13:23.995Z,94725.20
2023-05-14T15:15:52.520Z,94720.20
2023-05-14T15:18:19.366Z,94718.40
2023-05-14T15:20:46.018Z,94710.80
2023-05-14T15:23:12.631Z,94707.80
2023-05-14T15:25:39.315Z,94706.80
2023-05-14T15:28:09.870Z,94706.60
2023-05-14T15:30:36.825Z,94709.40
2023-05-14T15:33:03.643Z,94705.80
2023-05-14T15:35:30.324Z,94711.40
2023-05-14T15:37:59.767Z,94712.00
2023-05-14T15:40:27.846Z,94707.80
2023-05-14T15:42:54.842Z,94704.00
2023-05-14T15:45:21.667Z,94700.80
2023-05-14T15:47:48.340Z,94702.20
2023-05-14T15:50:14.962Z,94703.60
2023-05-14T15:52:41.631Z,94701.40
2023-05-14T15:55:09.171Z,94701.80
2023-05-14T15:57:35.980Z,94708.00
2023-05-14T16:00:12.465Z,94721.60
2023-05-14T16:02:39.959Z,94734.20
2023-05-14T16:05:08.438Z,94735.60
2023-05-14T16:07:36.039Z,94747.80
2023-05-14T16:10:03.249Z,94741.60
2023-05-14T16:12:29.898Z,94748.80
2023-05-14T16:14:57.538Z,94750.20
2023-05-14T16:17:24.609Z,94756.40
2023-05-14T16:19:52.785Z,94767.00
2023-05-14T16:22:20.735Z,94772.60
2023-05-14T16:24:47.441Z,94770.20
2023-05-14T16:27:14.185Z,94774.20
2023-05-14T16:29:40.784Z,94786.60
2023-05-14T16:32:07.494Z,94782.00
2023-05-14T16:34:34.244Z,94786.00
2023-05-14T16:37:01.130Z,94785.80
2023-05-14T16:39:27.801Z,94794.00
2023-05-14T16:41:54.547Z,94794.00
2023-05-14T16:44:21.343Z,94795.80
2023-05-14T16:46:48.762Z,94793.80
2023-05-14T16:49:15.641Z,94794.40
2023-05-14T16:51:43.975Z,94792.40
2023-05-14T16:54:10.710Z,94794.40
2023-05-14T16:56:37.417Z,94793.60
2023-05-14T16:59:03.982Z,94800.20
2023-05-14T17:01:31.078Z,94810.60
2023-05-14T17:03:57.889Z,94810.60
2023-05-14T17:06:24.723Z,94808.20
2023-05-14T17:08:51.804Z,94804.80
2023-05-14T17:11:18.411Z,94805.60
2023-05-14T17:13:44.970Z,94803.80
2023-05-14T17:16:11.940Z,94799.80
2023-05-14T17:18:38.908Z,94801.00
2023-05-14T17:21:07.544Z,94799.80
2023-05-14T17:23:34.576Z,94805.60
2023-05-14T17:26:01.190Z,94798.20
2023-05-14T17:28:29.724Z,94804.00
2023-05-14T17:30:59.829Z,94805.40
2023-05-14T17:33:26.639Z,94806.00
2023-05-14T17:35:53.264Z,94810.00
2023-05-14T17:38:19.924Z,94812.00
2023-05-14T17:40:46.586Z,94808.60
2023-05-14T17:43:13.268Z,94807.60
2023-05-14T17:45:53.111Z,94809.00
2023-05-14T17:48:21.138Z,94803.20
2023-05-14T17:50:47.800Z,94799.00
2023-05-14T17:53:14.831Z,94799.60
2023-05-14T17:55:43.806Z,94802.20
2023-05-14T17:58:15.583Z,94808.60
2023-05-14T18:00:42.685Z,94808.40
2023-05-14T18:03:10.356Z,94810.40
2023-05-14T18:05:37.207Z,94809.80
2023-05-14T18:08:03.995Z,94804.00
2023-05-14T18:10:30.666Z,94810.00
2023-05-14T18:12:57.279Z,94806.60
2023-05-14T18:15:25.840Z,94805.40
2023-05-14T18:17:53.214Z,94801.00
2023-05-14T18:20:20.705Z,94801.40
2023-05-14T18:22:47.448Z,94797.00
2023-05-14T18:25:14.124Z,94795.80
2023-05-14T18:27:44.541Z,94795.80
2023-05-14T18:30:14.692Z,94793.20
2023-05-14T18:32:44.319Z,94800.80
2023-05-14T18:35:13.005Z,94806.80
2023-05-14T18:37:40.902Z,94810.60
2023-05-14T18:40:08.741Z,94809.60
2023-05-14T18:42:35.497Z,94808.60
2023-05-14T18:45:04.175Z,94811.80
2023-05-14T18:47:32.624Z,94816.20
2023-05-14T18:50:01.739Z,94816.60
2023-05-14T18:52:29.436Z,94817.40
2023-05-14T18:54:56.446Z,94819.40
2023-05-14T18:57:23.100Z,94819.20
2023-05-14T18:59:49.804Z,94818.80
2023-05-14T19:02:16.538Z,94821.40
2023-05-14T19:04:52.293Z,94822.80
2023-05-14T19:07:21.209Z,94825.80
2023-05-14T19:09:48.337Z,94824.20
2023-05-14T19:12:16.204Z,94826.60
2023-05-14T19:14:43.014Z,94829.60
2023-05-14T19:17:09.810Z,94827.20
2023-05-14T19:19:36.510Z,94825.20
2023-05-14T19:22:03.261Z,94823.40
2023-05-14T19:24:30.195Z,94826.80
2023-05-14T19:27:02.756Z,94824.40
2023-05-14T19:29:29.355Z,94830.60
2023-05-14T19:31:56.149Z,94832.60
2023-05-14T19:34:22.831Z,94834.40
2023-05-14T19:36:50.370Z,94835.80
2023-05-14T19:39:16.959Z,94833.40
2023-05-14T19:41:43.712Z,94832.80
2023-05-14T19:44:10.298Z,94836.60
2023-05-14T19:46:37.194Z,94826.40
2023-05-14T19:49:03.852Z,94822.60
2023-05-14T19:51:30.526Z,94824.60
2023-05-14T19:53:57.187Z,94828.20
2023-05-14T19:56:25.711Z,94830.00
2023-05-14T19:58:54.017Z,94830.60
2023-05-14T20:01:21.157Z,94831.20
2023-05-14T20:03:48.281Z,94830.20
2023-05-14T20:06:14.968Z,94830.60
2023-05-14T20:08:41.599Z,94829.80
2023-05-14T20:11:08.205Z,94832.80
2023-05-14T20:13:36.569Z,94831.60
2023-05-14T20:16:03.239Z,94835.80
2023-05-14T20:18:29.970Z,94837.00
2023-05-14T20:20:56.665Z,94836.20
2023-05-14T20:23:23.254Z,94832.80
2023-05-14T20:25:51.176Z,94831.80
2023-05-14T20:28:17.874Z,94827.80
2023-05-14T20:30:44.478Z,94826.40
2023-05-14T20:33:12.971Z,94825.80
2023-05-14T20:35:43.165Z,94825.40
2023-05-14T20:38:12.852Z,94827.20
2023-05-14T20:40:39.965Z,94821.80
2023-05-14T20:43:06.599Z,94824.00
2023-05-14T20:45:33.400Z,94824.20
2023-05-14T20:48:00.039Z,94821.80
2023-05-14T20:50:28.004Z,94821.00
2023-05-14T20:52:55.307Z,94826.20
2023-05-14T20:55:22.459Z,94823.60
2023-05-14T20:57:49.707Z,94816.40
2023-05-14T21:00:16.925Z,94813.40
2023-05-14T21:02:43.716Z,94815.40
2023-05-14T21:05:10.676Z,94817.40
2023-05-14T21:07:37.549Z,94821.40
2023-05-14T21:10:04.824Z,94820.60
2023-05-14T21:12:31.549Z,94822.20
2023-05-14T21:14:58.129Z,94820.80
2023-05-14T21:17:24.976Z,94817.20
2023-05-14T21:19:51.550Z,94818.00
2023-05-14T21:22:18.358Z,94813.00
2023-05-14T21:24:45.014Z,94811.40
2023-05-14T21:27:11.678Z,94808.40
2023-05-14T21:29:39.567Z,94811.20
2023-05-14T21:32:06.677Z,94807.60
2023-05-14T21:34:33.494Z,94803.60
2023-05-14T21:37:00.511Z,94808.40
2023-05-14T21:39:27.376Z,94805.60
2023-05-14T21:41:54.097Z,94805.60
2023-05-14T21:44:22.055Z,94812.60
2023-05-14T21:46:49.105Z,94812.20
2023-05-14T21:49:15.760Z,94810.20
2023-05-14T21:51:42.839Z,94811.80
2023-05-14T21:54:09.763Z,94810.60
2023-05-14T21:56:37.224Z,94808.40
2023-05-14T21:59:03.893Z,94804.40
2023-05-14T22:01:32.527Z,94806.80
2023-05-14T22:04:00.006Z,94807.20
2023-05-14T22:06:26.734Z,94806.60
2023-05-14T22:08:53.423Z,94802.80
2023-05-14T22:11:20.143Z,94804.20
2023-05-14T22:13:46.740Z,94798.00
2023-05-14T22:16:14.227Z,94797.00
2023-05-14T22:18:41.633Z,94797.40
2023-05-14T22:21:08.380Z,94795.60
2023-05-14T22:23:35.132Z,94801.60
2023-05-14T22:26:01.939Z,94800.20
2023-05-14T22:28:28.538Z,94800.80
2023-05-14T22:30:56.546Z,94802.00
2023-05-14T22:33:23.401Z,94806.60
2023-05-14T22:35:50.566Z,94804.40
2023-05-14T22:38:17.419Z,94800.60
2023-05-14T22:40:44.000Z,94801.60
2023-05-14T22:43:10.919Z,94797.40
2023-05-14T22:45:37.687Z,94799.40
2023-05-14T22:48:04.523Z,94796.80
2023-05-14T22:50:31.273Z,94796.20
2023-05-14T22:52:57.810Z,94790.80
2023-05-14T22:55:24.658Z,94790.20
2023-05-14T22:57:51.591Z,94795.00
2023-05-14T23:00:18.791Z,94788.40
2023-05-14T23:02:45.663Z,94784.40
2023-05-14T23:05:12.300Z,94782.80
2023-05-14T23:07:39.103Z,94780.80
2023-05-14T23:10:06.480Z,94782.40
2023-05-14T23:12:33.241Z,94784.00
2023-05-14T23:14:59.986Z,94783.00
2023-05-14T23:17:26.993Z,94788.20
2023-05-14T23:19:53.770Z,94792.80
2023-05-14T23:22:20.704Z,94791.80
2023-05-14T23:24:47.422Z,94790.00
2023-05-14T23:27:14.028Z,94782.60
2023-05-14T23:29:40.683Z,94778.20
2023-05-14T23:32:08.438Z,94776.40
2023-05-14T23:34:35.440Z,94776.20
2023-05-14T23:37:02.362Z,94772.60
2023-05-14T23:39:29.195Z,94763.80
2023-05-14T23:41:55.822Z,94764.40
2023-05-14T23:44:22.538Z,94760.80
2023-05-14T23:46:49.380Z,94761.20
2023-05-14T23:49:16.048Z,94759.20
2023-05-14T23:51:42.770Z,94759.00
2023-05-14T23:54:09.338Z,94753.80
2023-05-14T23:56:36.018Z,94751.00
2023-05-14T23:59:03.542Z,94748.60
